| Date | Time | Temp. (oF) | Dew Point (oF) | Rel. Hum. (%) | Press. (in.) | Wind Dir. | Wind Speed (mph) | Hourly Rainfall (in.) |
|
|---|---|---|---|---|---|---|---|---|---|
| 1 | 08/20 | 00:00 | 80 | 67 | 65 | 29.86 | SSW | 1 | 0.00 |
| 2 | 08/19 | 23:00 | 82 | 67 | 61 | 29.85 | SW | 0 | 0.00 |
| 3 | 08/19 | 22:00 | 83 | 67 | 60 | 29.85 | SSW | 1 | 0.00 |
| 4 | 08/19 | 21:00 | 86 | 67 | 54 | 29.84 | SW | 2 | 0.00 |
| 5 | 08/19 | 20:00 | 89 | 66 | 48 | 29.82 | SSW | 1 | 0.00 |
| 6 | 08/19 | 19:00 | 92 | 66 | 44 | 29.81 | SSW | 3 | 0.00 |
| 7 | 08/19 | 18:00 | 93 | 66 | 43 | 29.81 | WSW | 3 | 0.00 |
| 8 | 08/19 | 17:00 | 94 | 68 | 44 | 29.83 | WSW | 1 | 0.00 |
| 9 | 08/19 | 16:00 | 92 | 68 | 47 | 29.86 | N | 1 | 0.00 |
| 10 | 08/19 | 15:00 | 93 | 68 | 46 | 29.90 | S | 6 | 0.00 |
| 11 | 08/19 | 14:00 | 91 | 68 | 48 | 29.91 | SW | 3 | 0.00 |
| 12 | 08/19 | 13:00 | 90 | 68 | 50 | 29.93 | W | 6 | 0.00 |
| 13 | 08/19 | 12:00 | 88 | 67 | 51 | 29.96 | SW | 4 | 0.00 |
| 14 | 08/19 | 11:00 | 87 | 67 | 52 | 29.97 | NNW | 1 | 0.00 |
| 15 | 08/19 | 10:00 | 83 | 67 | 59 | 29.95 | SSE | 1 | 0.00 |
| 16 | 08/19 | 09:00 | 81 | 67 | 63 | 29.94 | ENE | 0 | 0.00 |
| 17 | 08/19 | 08:00 | 77 | 69 | 77 | 29.94 | ENE | 1 | 0.00 |
| 18 | 08/19 | 07:00 | 75 | 68 | 80 | 29.93 | NW | 1 | 0.00 |
| 19 | 08/19 | 06:00 | 76 | 68 | 78 | 29.91 | NW | 1 | 0.00 |
| 20 | 08/19 | 05:00 | 77 | 68 | 76 | 29.91 | NW | 1 | 0.00 |
| 21 | 08/19 | 04:00 | 77 | 69 | 78 | 29.91 | WSW | 1 | 0.00 |
| 22 | 08/19 | 03:00 | 78 | 69 | 76 | 29.90 | WNW | 1 | 0.00 |
| 23 | 08/19 | 02:00 | 81 | 69 | 69 | 29.90 | W | 2 | 0.00 |
| 24 | 08/19 | 01:00 | 82 | 68 | 65 | 29.90 | WSW | 2 | 0.00 |